Terminal Aerodrome Forecast
Issued by NWS

Home | Current Version | Previous Version | Text Only | Print | Product List | Glossary On
Versions: 1 2 3 4 5 6 7 8 9 10 11 12 13 14 15 16 17 18 19
984
FTUS43 KLSX 281853 AAA
TAFUIN
TAF AMD
KUIN 281853Z 2819/2918 33008KT P6SM VCTS SCT050CB
      TEMPO 2820/2821 VRB15G25KT 2SM +TSRA OVC030CB
     FM282200 33006KT P6SM SCT050
      TEMPO 2909/2913 5SM BR
     FM291400 32005KT P6SM BKN040=

USA.gov is the U.S. government's official web portal to all federal, state and local government web resources and services.